createdAt,value
2022-08-28T00:08:57.236Z,95.31
2022-08-28T00:18:57.547Z,95.26
2022-08-28T00:28:57.583Z,94.31
2022-08-28T00:38:57.902Z,95.26
2022-08-28T00:48:58.032Z,95.66
2022-08-28T00:58:58.347Z,95.06
2022-08-28T01:08:59.028Z,95.10
2022-08-28T01:18:58.601Z,95.61
2022-08-28T01:28:58.630Z,96.01
2022-08-28T01:38:58.955Z,95.81
2022-08-28T01:48:58.972Z,94.59
2022-08-28T01:58:59.304Z,95.00
2022-08-28T02:08:59.322Z,95.04
2022-08-28T02:18:59.641Z,96.05
2022-08-28T02:28:59.682Z,96.10
2022-08-28T02:39:00.033Z,96.20
2022-08-28T02:49:00.094Z,96.60
2022-08-28T02:59:00.448Z,96.95
2022-08-28T03:09:00.470Z,97.60
2022-08-28T03:19:00.802Z,97.50
2022-08-28T03:29:00.824Z,96.89
2022-08-28T03:39:01.151Z,96.74
2022-08-28T03:49:01.180Z,97.09
2022-08-28T03:59:01.499Z,96.34
2022-08-28T04:09:01.522Z,95.02
2022-08-28T04:19:01.847Z,95.32
2022-08-28T04:29:01.869Z,94.82
2022-08-28T04:39:02.099Z,94.82
2022-08-28T04:49:02.338Z,94.42
2022-08-28T04:59:02.561Z,94.62
2022-08-28T05:09:02.796Z,95.12
2022-08-28T05:19:03.132Z,95.12
2022-08-28T05:29:03.137Z,95.37
2022-08-28T05:39:03.365Z,95.02
2022-08-28T05:49:07.746Z,94.47
2022-08-28T05:59:04.847Z,95.32
2022-08-28T06:09:04.077Z,95.32
2022-08-28T06:19:04.696Z,95.03
2022-08-28T06:29:04.640Z,93.43
2022-08-28T06:39:04.675Z,91.13
2022-08-28T06:49:04.995Z,90.48
2022-08-28T06:59:05.040Z,88.98
2022-08-28T07:09:05.343Z,88.09
2022-08-28T07:19:05.355Z,87.01
2022-08-28T07:29:09.652Z,85.16
2022-08-28T07:39:06.734Z,83.57
2022-08-28T07:49:06.039Z,80.18
2022-08-28T07:59:06.077Z,80.27
2022-08-28T08:09:06.387Z,80.03
2022-08-28T08:19:06.423Z,77.12
2022-08-28T08:29:06.728Z,75.09
2022-08-28T08:39:06.773Z,76.65
2022-08-28T08:49:07.090Z,75.74
2022-08-28T08:59:07.490Z,73.58
2022-08-28T09:09:07.445Z,73.74
2022-08-28T09:19:07.490Z,74.21
2022-08-28T09:29:07.775Z,74.38
2022-08-28T09:39:07.864Z,72.58
2022-08-28T09:49:08.030Z,74.58
2022-08-28T09:59:08.054Z,72.35
2022-08-28T10:09:08.376Z,71.81
2022-08-28T10:19:08.419Z,70.42
2022-08-28T10:29:08.739Z,66.88
2022-08-28T10:39:08.917Z,68.60
2022-08-28T10:49:09.199Z,69.13
2022-08-28T10:59:09.222Z,66.58
2022-08-28T11:09:09.531Z,66.75
2022-08-28T11:19:09.557Z,65.39
2022-08-28T11:29:09.879Z,64.97
2022-08-28T11:39:09.927Z,63.35
2022-08-28T11:49:10.238Z,60.36
2022-08-28T11:59:10.269Z,62.37
2022-08-28T12:09:10.479Z,61.48
2022-08-28T12:19:10.701Z,60.24
2022-08-28T12:29:11.033Z,61.29
2022-08-28T12:39:11.094Z,58.75
2022-08-28T12:49:11.387Z,59.45
2022-08-28T12:59:11.629Z,57.18
2022-08-28T13:09:11.739Z,59.12
2022-08-28T13:19:11.910Z,57.59
2022-08-28T13:29:11.974Z,57.42
2022-08-28T13:39:12.194Z,55.94
2022-08-28T13:49:12.537Z,54.82
2022-08-28T13:59:12.579Z,54.97
2022-08-28T14:09:12.890Z,57.12
2022-08-28T14:19:12.944Z,56.33
2022-08-28T14:29:13.376Z,54.88
2022-08-28T14:39:13.316Z,57.34
2022-08-28T14:49:13.586Z,56.02
2022-08-28T14:59:17.488Z,56.26
2022-08-28T15:09:14.868Z,55.99
2022-08-28T15:19:14.011Z,57.54
2022-08-28T15:29:14.050Z,56.38
2022-08-28T15:39:14.368Z,55.43
2022-08-28T15:49:14.396Z,56.44
2022-08-28T15:59:14.715Z,57.46
2022-08-28T16:09:14.740Z,59.11
2022-08-28T16:19:15.061Z,58.84
2022-08-28T16:29:15.092Z,59.99
2022-08-28T16:39:15.413Z,62.88
2022-08-28T16:49:15.459Z,64.26
2022-08-28T16:59:15.758Z,66.18
2022-08-28T17:09:16.157Z,66.51
2022-08-28T17:19:16.108Z,67.50
2022-08-28T17:29:16.191Z,67.27
2022-08-28T17:39:16.450Z,68.79
2022-08-28T17:49:16.379Z,69.23
2022-08-28T17:59:16.665Z,70.75
2022-08-28T18:09:16.757Z,70.39
2022-08-28T18:19:16.946Z,71.72
2022-08-28T18:29:17.024Z,72.35
2022-08-28T18:39:18.951Z,73.35
2022-08-28T18:49:18.265Z,72.75
2022-08-28T18:59:17.440Z,73.92
2022-08-28T19:09:20.185Z,75.85
2022-08-28T19:19:17.729Z,76.69
2022-08-28T19:29:17.979Z,76.39
2022-08-28T19:39:17.940Z,77.33
2022-08-28T19:49:18.134Z,76.93
2022-08-28T19:59:18.210Z,79.94
2022-08-28T20:09:18.342Z,78.41
2022-08-28T20:19:18.424Z,79.85
2022-08-28T20:29:18.382Z,79.85
2022-08-28T20:39:18.449Z,81.73
2022-08-28T20:49:18.669Z,81.23
2022-08-28T20:59:18.903Z,81.62
2022-08-28T21:09:19.187Z,81.46
2022-08-28T21:19:19.212Z,80.96
2022-08-28T21:29:19.470Z,82.51
2022-08-28T21:39:19.694Z,85.50
2022-08-28T21:49:20.004Z,84.15
2022-08-28T21:59:20.143Z,86.34
2022-08-28T22:09:21.334Z,87.29
2022-08-28T22:19:20.372Z,86.68
2022-08-28T22:29:20.897Z,85.68
2022-08-28T22:39:20.746Z,86.88
2022-08-28T22:49:21.142Z,86.52
2022-08-28T22:59:21.181Z,86.68
2022-08-28T23:09:21.516Z,86.83
2022-08-28T23:19:21.557Z,86.72
2022-08-28T23:29:21.758Z,86.87
2022-08-28T23:39:21.793Z,86.87
2022-08-28T23:49:26.341Z,88.16
2022-08-28T23:59:23.181Z,87.82
